OO42 weather

Manston Air Base
Manston, Dhofar Governorate, Oman

Public forecast

Using degrees Celsius for public forecast. Weather courtesy of forecast.io.

METAR (pilot weather report)

Closest report is Salalah Airport, 42.2 nm (78.1 km) E. Retrieved 2019/04/21 06:50 UTC (55 minutes ago):

OOSA 210650Z 17012KT 140V210 9999 SCT025 30/23 Q1011 NOSIG

TAF (pilot weather forecast)

Closest forecast is Salalah Airport, 42.2 nm (78.1 km) E. Retrieved 2019/04/21 06:00 UTC (2 hours ago):

TAF OOSA 210540Z 2106/2212 19010KT 9999 SCT025 TEMPO 2123/2205 VRB03KT